Terminal Aerodrome Forecast
Issued by NWS

Home | Current Version | Previous Version | Text Only | Print | Product List | Glossary On
Versions: 1 2 3 4 5 6 7 8 9 10 11 12 13 14 15 16 17 18 19 20 21 22 23 24 25 26 27 28 29 30 31 32 33 34 35 36 37 38 39 40 41 42 43
000
FTUS43 KDMX 302322
TAFMCW
TAF
KMCW 302322Z 0100/0124 01007KT 6SM FU SCT045 BKN200
     FM010200 09005KT 6SM FU SCT090 BKN150
     FM010600 09006KT 5SM BR FU SCT090 BKN150
     FM011300 08011KT P6SM SCT050 BKN110
     FM012300 08010G14KT P6SM BKN050 BKN200=

USA.gov is the U.S. government's official web portal to all federal, state and local government web resources and services.